sensor_id;sensor_type;location;lat;lon;timestamp;pressure;altitude;pressure_sealevel;temperature;humidity
23433;BME280;41331;45.412;10.992;2023-01-31T00:01:48;101318.31;;;1.39;100.00
23433;BME280;41331;45.412;10.992;2023-01-31T00:04:16;101327.00;;;1.29;100.00
23433;BME280;41331;45.412;10.992;2023-01-31T00:06:43;101331.41;;;1.35;100.00
23433;BME280;41331;45.412;10.992;2023-01-31T00:09:17;101323.75;;;1.44;100.00
23433;BME280;41331;45.412;10.992;2023-01-31T00:11:45;101324.41;;;1.51;100.00
23433;BME280;41331;45.412;10.992;2023-01-31T00:14:17;101339.44;;;1.35;100.00
23433;BME280;41331;45.412;10.992;2023-01-31T00:16:45;101331.97;;;1.20;100.00
23433;BME280;41331;45.412;10.992;2023-01-31T00:19:12;101337.31;;;1.20;100.00
23433;BME280;41331;45.412;10.992;2023-01-31T00:21:40;101339.28;;;1.25;100.00
23433;BME280;41331;45.412;10.992;2023-01-31T00:24:12;101328.06;;;1.28;100.00
23433;BME280;41331;45.412;10.992;2023-01-31T00:26:40;101336.31;;;1.21;100.00
23433;BME280;41331;45.412;10.992;2023-01-31T00:29:08;101342.03;;;1.30;100.00
23433;BME280;41331;45.412;10.992;2023-01-31T00:31:37;101342.63;;;1.32;100.00
23433;BME280;41331;45.412;10.992;2023-01-31T00:34:06;101342.13;;;1.18;100.00
23433;BME280;41331;45.412;10.992;2023-01-31T00:36:34;101346.59;;;1.29;100.00
23433;BME280;41331;45.412;10.992;2023-01-31T00:39:04;101350.00;;;1.25;100.00
23433;BME280;41331;45.412;10.992;2023-01-31T00:41:33;101343.91;;;1.29;100.00
23433;BME280;41331;45.412;10.992;2023-01-31T00:44:04;101352.22;;;1.28;100.00
23433;BME280;41331;45.412;10.992;2023-01-31T00:46:32;101363.59;;;1.18;100.00
23433;BME280;41331;45.412;10.992;2023-01-31T00:49:00;101351.81;;;1.19;100.00
23433;BME280;41331;45.412;10.992;2023-01-31T00:51:28;101360.19;;;1.23;100.00
23433;BME280;41331;45.412;10.992;2023-01-31T00:53:55;101359.72;;;1.26;100.00
23433;BME280;41331;45.412;10.992;2023-01-31T00:56:23;101351.97;;;1.13;100.00
23433;BME280;41331;45.412;10.992;2023-01-31T00:58:52;101362.94;;;1.28;100.00
23433;BME280;41331;45.412;10.992;2023-01-31T01:01:27;101368.72;;;1.37;100.00
23433;BME280;41331;45.412;10.992;2023-01-31T01:03:56;101370.69;;;1.41;100.00
23433;BME280;41331;45.412;10.992;2023-01-31T01:06:25;101368.47;;;1.38;100.00
23433;BME280;41331;45.412;10.992;2023-01-31T01:08:53;101364.47;;;1.24;100.00
23433;BME280;41331;45.412;10.992;2023-01-31T01:11:23;101371.72;;;1.23;100.00
23433;BME280;41331;45.412;10.992;2023-01-31T01:13:51;101374.81;;;1.32;100.00
23433;BME280;41331;45.412;10.992;2023-01-31T01:16:29;101381.97;;;1.43;100.00
23433;BME280;41331;45.412;10.992;2023-01-31T01:18:57;101382.34;;;1.35;100.00
23433;BME280;41331;45.412;10.992;2023-01-31T01:21:27;101392.91;;;1.25;100.00
23433;BME280;41331;45.412;10.992;2023-01-31T01:23:56;101392.69;;;1.26;100.00
23433;BME280;41331;45.412;10.992;2023-01-31T01:26:26;101393.72;;;1.25;100.00
23433;BME280;41331;45.412;10.992;2023-01-31T01:28:55;101383.41;;;1.17;100.00
23433;BME280;41331;45.412;10.992;2023-01-31T01:31:23;101380.22;;;1.20;100.00
23433;BME280;41331;45.412;10.992;2023-01-31T01:34:10;101389.84;;;1.16;100.00
23433;BME280;41331;45.412;10.992;2023-01-31T01:36:38;101394.47;;;1.21;100.00
23433;BME280;41331;45.412;10.992;2023-01-31T01:39:09;101393.72;;;1.25;100.00
23433;BME280;41331;45.412;10.992;2023-01-31T01:41:38;101400.16;;;1.24;100.00
23433;BME280;41331;45.412;10.992;2023-01-31T01:44:43;101410.41;;;1.27;100.00
23433;BME280;41331;45.412;10.992;2023-01-31T01:50:30;101400.16;;;1.24;100.00
23433;BME280;41331;45.412;10.992;2023-01-31T01:55:41;101395.22;;;1.16;100.00
23433;BME280;41331;45.412;10.992;2023-01-31T01:58:15;101383.91;;;1.14;100.00
23433;BME280;41331;45.412;10.992;2023-01-31T02:00:45;101391.22;;;1.19;100.00
23433;BME280;41331;45.412;10.992;2023-01-31T02:03:13;101386.75;;;1.24;100.00
23433;BME280;41331;45.412;10.992;2023-01-31T02:05:47;101397.56;;;1.13;100.00
23433;BME280;41331;45.412;10.992;2023-01-31T02:08:18;101397.47;;;1.08;100.00
23433;BME280;41331;45.412;10.992;2023-01-31T02:10:51;101403.72;;;1.13;100.00
23433;BME280;41331;45.412;10.992;2023-01-31T02:13:19;101408.19;;;1.08;100.00
23433;BME280;41331;45.412;10.992;2023-01-31T02:15:48;101405.97;;;1.04;100.00
23433;BME280;41331;45.412;10.992;2023-01-31T02:18:18;101412.78;;;0.95;100.00
23433;BME280;41331;45.412;10.992;2023-01-31T02:29:12;101413.72;;;1.01;100.00
23433;BME280;41331;45.412;10.992;2023-01-31T02:32:10;101413.53;;;0.91;100.00
23433;BME280;41331;45.412;10.992;2023-01-31T02:40:39;101413.03;;;0.94;100.00
23433;BME280;41331;45.412;10.992;2023-01-31T02:46:41;101413.28;;;0.92;100.00
23433;BME280;41331;45.412;10.992;2023-01-31T02:49:22;101404.72;;;0.95;100.00
23433;BME280;41331;45.412;10.992;2023-01-31T02:54:55;101421.66;;;0.96;100.00
23433;BME280;41331;45.412;10.992;2023-01-31T02:57:48;101422.94;;;0.93;100.00
23433;BME280;41331;45.412;10.992;2023-01-31T03:00:17;101420.09;;;1.00;100.00
23433;BME280;41331;45.412;10.992;2023-01-31T03:02:46;101424.66;;;0.99;100.00
23433;BME280;41331;45.412;10.992;2023-01-31T03:05:15;101417.59;;;1.10;100.00
23433;BME280;41331;45.412;10.992;2023-01-31T03:07:49;101434.13;;;1.19;100.00
23433;BME280;41331;45.412;10.992;2023-01-31T03:10:32;101437.84;;;1.18;100.00
23433;BME280;41331;45.412;10.992;2023-01-31T03:13:27;101443.59;;;1.10;100.00
23433;BME280;41331;45.412;10.992;2023-01-31T03:16:31;101448.03;;;1.16;100.00
23433;BME280;41331;45.412;10.992;2023-01-31T03:19:26;101442.59;;;0.99;100.00
23433;BME280;41331;45.412;10.992;2023-01-31T03:22:04;101441.53;;;1.00;100.00
23433;BME280;41331;45.412;10.992;2023-01-31T03:24:32;101449.13;;;1.03;100.00
23433;BME280;41331;45.412;10.992;2023-01-31T03:27:00;101450.91;;;0.97;100.00
23433;BME280;41331;45.412;10.992;2023-01-31T03:29:32;101449.59;;;1.00;100.00
23433;BME280;41331;45.412;10.992;2023-01-31T03:32:10;101451.66;;;1.10;100.00
23433;BME280;41331;45.412;10.992;2023-01-31T03:34:43;101452.88;;;1.02;100.00
23433;BME280;41331;45.412;10.992;2023-01-31T03:37:31;101453.91;;;1.01;100.00
23433;BME280;41331;45.412;10.992;2023-01-31T03:40:23;101452.41;;;0.93;100.00
23433;BME280;41331;45.412;10.992;2023-01-31T03:42:57;101445.44;;;0.92;100.00
23433;BME280;41331;45.412;10.992;2023-01-31T03:45:44;101451.94;;;0.96;100.00
23433;BME280;41331;45.412;10.992;2023-01-31T03:48:16;101449.13;;;1.03;100.00
23433;BME280;41331;45.412;10.992;2023-01-31T03:50:55;101453.66;;;1.02;100.00
23433;BME280;41331;45.412;10.992;2023-01-31T03:53:31;101449.94;;;1.03;100.00
23433;BME280;41331;45.412;10.992;2023-01-31T03:56:09;101457.81;;;1.10;100.00
23433;BME280;41331;45.412;10.992;2023-01-31T03:58:44;101458.06;;;1.09;100.00
23433;BME280;41331;45.412;10.992;2023-01-31T04:01:15;101461.16;;;1.00;100.00
23433;BME280;41331;45.412;10.992;2023-01-31T04:03:56;101444.38;;;1.22;100.00
23433;BME280;41331;45.412;10.992;2023-01-31T04:06:26;101448.28;;;1.31;100.00
23433;BME280;41331;45.412;10.992;2023-01-31T04:08:54;101455.09;;;1.22;100.00
23433;BME280;41331;45.412;10.992;2023-01-31T04:11:24;101451.81;;;1.20;100.00
23433;BME280;41331;45.412;10.992;2023-01-31T04:13:52;101444.13;;;1.23;100.00
23433;BME280;41331;45.412;10.992;2023-01-31T04:16:20;101442.50;;;1.22;100.00
23433;BME280;41331;45.412;10.992;2023-01-31T04:18:47;101443.06;;;1.24;100.00
23433;BME280;41331;45.412;10.992;2023-01-31T04:21:15;101456.16;;;1.21;100.00
23433;BME280;41331;45.412;10.992;2023-01-31T04:23:42;101453.59;;;1.14;100.00
23433;BME280;41331;45.412;10.992;2023-01-31T04:26:10;101443.03;;;1.08;100.00
23433;BME280;41331;45.412;10.992;2023-01-31T04:28:38;101441.63;;;1.05;100.00
23433;BME280;41331;45.412;10.992;2023-01-31T04:31:06;101448.88;;;1.04;100.00
23433;BME280;41331;45.412;10.992;2023-01-31T04:33:34;101449.59;;;1.00;100.00
23433;BME280;41331;45.412;10.992;2023-01-31T04:36:01;101460.91;;;1.02;100.00
23433;BME280;41331;45.412;10.992;2023-01-31T04:38:29;101460.81;;;0.97;100.00
23433;BME280;41331;45.412;10.992;2023-01-31T04:40:56;101459.22;;;0.84;100.00
23433;BME280;41331;45.412;10.992;2023-01-31T04:43:24;101460.03;;;0.85;100.00
23433;BME280;41331;45.412;10.992;2023-01-31T04:45:51;101464.56;;;0.84;100.00
23433;BME280;41331;45.412;10.992;2023-01-31T04:48:19;101466.63;;;0.94;100.00
23433;BME280;41331;45.412;10.992;2023-01-31T04:50:46;101463.50;;;0.97;100.00
23433;BME280;41331;45.412;10.992;2023-01-31T04:53:14;101468.47;;;0.76;100.00
23433;BME280;41331;45.412;10.992;2023-01-31T04:55:42;101467.34;;;0.89;100.00
23433;BME280;41331;45.412;10.992;2023-01-31T04:58:09;101466.06;;;0.92;100.00
23433;BME280;41331;45.412;10.992;2023-01-31T05:00:37;101469.19;;;1.00;100.00
23433;BME280;41331;45.412;10.992;2023-01-31T05:03:04;101460.72;;;0.80;100.00
23433;BME280;41331;45.412;10.992;2023-01-31T05:05:32;101470.28;;;0.88;100.00
23433;BME280;41331;45.412;10.992;2023-01-31T05:08:02;101467.25;;;0.84;100.00
23433;BME280;41331;45.412;10.992;2023-01-31T05:10:30;101467.16;;;0.79;100.00
23433;BME280;41331;45.412;10.992;2023-01-31T05:12:58;101468.88;;;0.85;100.00
23433;BME280;41331;45.412;10.992;2023-01-31T05:15:26;101468.16;;;0.90;100.00
23433;BME280;41331;45.412;10.992;2023-01-31T05:17:54;101467.41;;;1.06;100.00
23433;BME280;41331;45.412;10.992;2023-01-31T05:20:32;101476.53;;;0.93;100.00
23433;BME280;41331;45.412;10.992;2023-01-31T05:23:02;101466.63;;;0.94;100.00
23433;BME280;41331;45.412;10.992;2023-01-31T05:25:30;101477.25;;;1.00;100.00
23433;BME280;41331;45.412;10.992;2023-01-31T05:27:57;101482.69;;;1.06;100.00
23433;BME280;41331;45.412;10.992;2023-01-31T05:30:25;101474.44;;;0.95;100.00
23433;BME280;41331;45.412;10.992;2023-01-31T05:32:54;101459.09;;;0.91;100.00
23433;BME280;41331;45.412;10.992;2023-01-31T05:35:21;101466.50;;;1.00;100.00
23433;BME280;41331;45.412;10.992;2023-01-31T05:37:52;101457.06;;;0.98;100.00
23433;BME280;41331;45.412;10.992;2023-01-31T05:40:19;101458.41;;;1.12;100.00
23433;BME280;41331;45.412;10.992;2023-01-31T05:42:55;101454.28;;;0.93;100.00
23433;BME280;41331;45.412;10.992;2023-01-31T05:45:23;101475.59;;;0.99;100.00
23433;BME280;41331;45.412;10.992;2023-01-31T05:47:51;101476.31;;;0.95;100.00
23433;BME280;41331;45.412;10.992;2023-01-31T05:50:19;101487.28;;;0.93;100.00
23433;BME280;41331;45.412;10.992;2023-01-31T05:52:52;101489.38;;;0.91;100.00
23433;BME280;41331;45.412;10.992;2023-01-31T05:55:20;101476.09;;;0.85;100.00
23433;BME280;41331;45.412;10.992;2023-01-31T05:57:51;101496.50;;;0.86;100.00
23433;BME280;41331;45.412;10.992;2023-01-31T06:00:19;101493.59;;;0.87;100.00
23433;BME280;41331;45.412;10.992;2023-01-31T06:02:46;101503.09;;;1.07;100.00
23433;BME280;41331;45.412;10.992;2023-01-31T06:05:14;101483.31;;;0.96;100.00
23433;BME280;41331;45.412;10.992;2023-01-31T06:07:42;101492.63;;;0.93;100.00
23433;BME280;41331;45.412;10.992;2023-01-31T06:10:10;101499.50;;;0.89;100.00
23433;BME280;41331;45.412;10.992;2023-01-31T06:12:38;101517.59;;;0.82;100.00
23433;BME280;41331;45.412;10.992;2023-01-31T06:15:06;101528.31;;;0.82;100.00
23433;BME280;41331;45.412;10.992;2023-01-31T06:17:34;101524.13;;;0.86;100.00
23433;BME280;41331;45.412;10.992;2023-01-31T06:20:03;101530.75;;;0.84;100.00
23433;BME280;41331;45.412;10.992;2023-01-31T06:22:31;101530.31;;;0.87;100.00
23433;BME280;41331;45.412;10.992;2023-01-31T06:24:59;101528.19;;;0.89;100.00
23433;BME280;41331;45.412;10.992;2023-01-31T06:27:26;101536.94;;;0.96;100.00
23433;BME280;41331;45.412;10.992;2023-01-31T06:29:54;101534.34;;;1.01;100.00
23433;BME280;41331;45.412;10.992;2023-01-31T06:32:21;101541.84;;;0.87;100.00
23433;BME280;41331;45.412;10.992;2023-01-31T06:34:49;101553.00;;;0.96;100.00
23433;BME280;41331;45.412;10.992;2023-01-31T06:37:16;101563.34;;;1.04;100.00
23433;BME280;41331;45.412;10.992;2023-01-31T06:39:44;101551.84;;;0.92;100.00
23433;BME280;41331;45.412;10.992;2023-01-31T06:42:11;101563.84;;;1.01;100.00
23433;BME280;41331;45.412;10.992;2023-01-31T06:44:39;101571.63;;;1.02;100.00
23433;BME280;41331;45.412;10.992;2023-01-31T06:47:07;101560.91;;;1.02;100.00
23433;BME280;41331;45.412;10.992;2023-01-31T06:49:34;101571.88;;;1.01;100.00
23433;BME280;41331;45.412;10.992;2023-01-31T06:52:02;101574.47;;;0.96;100.00
23433;BME280;41331;45.412;10.992;2023-01-31T06:54:29;101564.97;;;1.05;100.00
23433;BME280;41331;45.412;10.992;2023-01-31T06:56:57;101583.84;;;1.10;100.00
23433;BME280;41331;45.412;10.992;2023-01-31T06:59:25;101582.31;;;1.14;100.00
23433;BME280;41331;45.412;10.992;2023-01-31T07:01:53;101578.81;;;1.14;100.00
23433;BME280;41331;45.412;10.992;2023-01-31T07:04:21;101596.34;;;1.04;100.00
23433;BME280;41331;45.412;10.992;2023-01-31T07:06:48;101584.91;;;1.09;100.00
23433;BME280;41331;45.412;10.992;2023-01-31T07:09:16;101599.81;;;1.17;100.00
23433;BME280;41331;45.412;10.992;2023-01-31T07:11:44;101586.41;;;1.17;100.00
23433;BME280;41331;45.412;10.992;2023-01-31T07:14:11;101604.88;;;1.42;100.00
23433;BME280;41331;45.412;10.992;2023-01-31T07:16:39;101590.41;;;1.71;98.75
23433;BME280;41331;45.412;10.992;2023-01-31T07:19:06;101603.88;;;2.05;95.62
23433;BME280;41331;45.412;10.992;2023-01-31T07:21:34;101599.28;;;2.56;92.72
23433;BME280;41331;45.412;10.992;2023-01-31T07:24:03;101604.88;;;2.88;89.72
23433;BME280;41331;45.412;10.992;2023-01-31T07:26:31;101586.97;;;2.77;90.49
23433;BME280;41331;45.412;10.992;2023-01-31T07:28:58;101583.44;;;3.37;89.36
23433;BME280;41331;45.412;10.992;2023-01-31T07:31:26;101585.97;;;4.40;83.67
23433;BME280;41331;45.412;10.992;2023-01-31T07:33:53;101583.94;;;5.10;77.04
23433;BME280;41331;45.412;10.992;2023-01-31T07:36:21;101585.00;;;6.12;73.46
23433;BME280;41331;45.412;10.992;2023-01-31T07:38:53;101585.50;;;6.75;69.11
23433;BME280;41331;45.412;10.992;2023-01-31T07:41:23;101581.97;;;6.75;68.49
23433;BME280;41331;45.412;10.992;2023-01-31T07:43:51;101579.34;;;6.29;68.73
23433;BME280;41331;45.412;10.992;2023-01-31T07:46:19;101597.16;;;6.56;70.54
23433;BME280;41331;45.412;10.992;2023-01-31T07:48:47;101587.84;;;6.97;68.77
23433;BME280;41331;45.412;10.992;2023-01-31T07:51:14;101590.78;;;7.66;65.05
23433;BME280;41331;45.412;10.992;2023-01-31T07:53:42;101584.88;;;7.59;64.74
23433;BME280;41331;45.412;10.992;2023-01-31T07:56:15;101583.13;;;7.34;65.40
23433;BME280;41331;45.412;10.992;2023-01-31T07:58:45;101587.38;;;7.50;64.25
23433;BME280;41331;45.412;10.992;2023-01-31T08:01:31;101579.00;;;7.41;64.77
23433;BME280;41331;45.412;10.992;2023-01-31T08:04:36;101582.16;;;7.04;65.85
23433;BME280;41331;45.412;10.992;2023-01-31T08:07:04;101576.16;;;7.12;64.54
23433;BME280;41331;45.412;10.992;2023-01-31T08:09:33;101599.09;;;7.35;64.04
23433;BME280;41331;45.412;10.992;2023-01-31T08:12:00;101599.47;;;7.13;64.11
23433;BME280;41331;45.412;10.992;2023-01-31T08:14:28;101601.81;;;7.30;61.86
23433;BME280;41331;45.412;10.992;2023-01-31T08:16:55;101591.44;;;7.42;58.52
23433;BME280;41331;45.412;10.992;2023-01-31T08:19:23;101607.25;;;7.25;59.60
23433;BME280;41331;45.412;10.992;2023-01-31T08:21:50;101591.53;;;7.27;58.84
23433;BME280;41331;45.412;10.992;2023-01-31T08:24:18;101605.72;;;8.02;56.96
23433;BME280;41331;45.412;10.992;2023-01-31T08:26:46;101588.25;;;8.77;56.05
23433;BME280;41331;45.412;10.992;2023-01-31T08:29:14;101601.97;;;9.15;54.33
23433;BME280;41331;45.412;10.992;2023-01-31T08:31:41;101602.28;;;9.08;52.20
23433;BME280;41331;45.412;10.992;2023-01-31T08:34:10;101614.69;;;8.95;54.16
23433;BME280;41331;45.412;10.992;2023-01-31T08:36:38;101614.03;;;9.03;53.69
23433;BME280;41331;45.412;10.992;2023-01-31T08:39:05;101621.22;;;9.37;55.75
23433;BME280;41331;45.412;10.992;2023-01-31T08:41:34;101617.94;;;9.40;55.94
23433;BME280;41331;45.412;10.992;2023-01-31T08:44:03;101614.56;;;9.29;55.97
23433;BME280;41331;45.412;10.992;2023-01-31T08:46:33;101614.88;;;9.23;56.27
23433;BME280;41331;45.412;10.992;2023-01-31T08:49:04;101623.94;;;8.36;59.22
23433;BME280;41331;45.412;10.992;2023-01-31T08:51:32;101624.97;;;8.01;60.56
23433;BME280;41331;45.412;10.992;2023-01-31T08:54:00;101623.34;;;8.05;61.27
23433;BME280;41331;45.412;10.992;2023-01-31T08:56:28;101625.69;;;8.51;58.79
23433;BME280;41331;45.412;10.992;2023-01-31T08:58:56;101632.03;;;8.02;61.75
23433;BME280;41331;45.412;10.992;2023-01-31T09:01:24;101628.94;;;8.19;64.42
23433;BME280;41331;45.412;10.992;2023-01-31T09:03:52;101622.78;;;8.71;61.79
23433;BME280;41331;45.412;10.992;2023-01-31T09:06:24;101630.84;;;9.29;60.97
23433;BME280;41331;45.412;10.992;2023-01-31T09:08:57;101622.88;;;9.57;58.91
23433;BME280;41331;45.412;10.992;2023-01-31T09:11:28;101615.38;;;10.57;54.62
23433;BME280;41331;45.412;10.992;2023-01-31T09:13:57;101618.75;;;10.35;53.22
23433;BME280;41331;45.412;10.992;2023-01-31T09:16:24;101613.47;;;11.54;51.39
23433;BME280;41331;45.412;10.992;2023-01-31T09:18:53;101611.41;;;12.94;48.83
23433;BME280;41331;45.412;10.992;2023-01-31T09:21:21;101605.34;;;13.63;46.40
23433;BME280;41331;45.412;10.992;2023-01-31T09:23:55;101612.38;;;14.50;44.36
23433;BME280;41331;45.412;10.992;2023-01-31T09:26:23;101609.63;;;14.59;43.68
23433;BME280;41331;45.412;10.992;2023-01-31T09:28:51;101616.38;;;12.92;48.77
23433;BME280;41331;45.412;10.992;2023-01-31T09:31:19;101610.31;;;13.95;48.43
23433;BME280;41331;45.412;10.992;2023-01-31T09:33:47;101615.44;;;15.34;45.80
23433;BME280;41331;45.412;10.992;2023-01-31T09:36:19;101614.88;;;15.70;44.49
23433;BME280;41331;45.412;10.992;2023-01-31T09:38:47;101610.06;;;15.17;45.92
23433;BME280;41331;45.412;10.992;2023-01-31T09:43:55;101611.38;;;15.61;44.66
23433;BME280;41331;45.412;10.992;2023-01-31T09:46:27;101599.50;;;15.78;44.61
23433;BME280;41331;45.412;10.992;2023-01-31T09:49:00;101607.16;;;15.43;46.43
23433;BME280;41331;45.412;10.992;2023-01-31T09:51:36;101605.38;;;14.79;48.57
23433;BME280;41331;45.412;10.992;2023-01-31T09:54:17;101612.69;;;14.58;49.55
23433;BME280;41331;45.412;10.992;2023-01-31T09:57:34;101609.78;;;15.31;47.96
23433;BME280;41331;45.412;10.992;2023-01-31T10:00:32;101612.56;;;14.19;50.88
23433;BME280;41331;45.412;10.992;2023-01-31T10:05:51;101620.44;;;13.03;53.82
23433;BME280;41331;45.412;10.992;2023-01-31T10:08:38;101619.97;;;13.50;51.51
23433;BME280;41331;45.412;10.992;2023-01-31T10:11:21;101628.78;;;12.36;53.65
23433;BME280;41331;45.412;10.992;2023-01-31T10:14:00;101617.75;;;12.50;52.96
23433;BME280;41331;45.412;10.992;2023-01-31T10:19:53;101636.44;;;12.25;54.90
23433;BME280;41331;45.412;10.992;2023-01-31T10:25:00;101633.75;;;13.27;53.35
23433;BME280;41331;45.412;10.992;2023-01-31T10:27:49;101627.00;;;12.31;55.15
23433;BME280;41331;45.412;10.992;2023-01-31T10:30:23;101637.72;;;12.05;57.90
23433;BME280;41331;45.412;10.992;2023-01-31T10:33:01;101627.59;;;12.82;56.09
23433;BME280;41331;45.412;10.992;2023-01-31T10:35:40;101629.69;;;12.54;57.41
23433;BME280;41331;45.412;10.992;2023-01-31T10:38:19;101611.66;;;12.22;58.96
23433;BME280;41331;45.412;10.992;2023-01-31T10:40:53;101612.81;;;12.29;59.39
23433;BME280;41331;45.412;10.992;2023-01-31T10:43:32;101618.56;;;11.83;60.19
23433;BME280;41331;45.412;10.992;2023-01-31T10:46:10;101601.13;;;11.70;61.58
23433;BME280;41331;45.412;10.992;2023-01-31T10:48:41;101599.78;;;11.18;63.32
23433;BME280;41331;45.412;10.992;2023-01-31T10:51:37;101603.97;;;12.01;60.86
23433;BME280;41331;45.412;10.992;2023-01-31T10:56:58;101601.28;;;11.74;62.78
23433;BME280;41331;45.412;10.992;2023-01-31T10:59:33;101599.00;;;11.67;61.38
23433;BME280;41331;45.412;10.992;2023-01-31T11:02:02;101592.53;;;11.63;61.92
23433;BME280;41331;45.412;10.992;2023-01-31T11:04:42;101605.34;;;11.76;62.46
23433;BME280;41331;45.412;10.992;2023-01-31T11:07:09;101587.78;;;12.05;60.31
23433;BME280;41331;45.412;10.992;2023-01-31T11:09:40;101590.78;;;12.48;58.77
23433;BME280;41331;45.412;10.992;2023-01-31T11:12:09;101599.63;;;12.45;59.37
23433;BME280;41331;45.412;10.992;2023-01-31T11:14:37;101579.78;;;12.62;58.34
23433;BME280;41331;45.412;10.992;2023-01-31T11:17:16;101581.19;;;12.51;59.35
23433;BME280;41331;45.412;10.992;2023-01-31T11:19:53;101582.44;;;13.33;57.06
23433;BME280;41331;45.412;10.992;2023-01-31T11:22:27;101578.91;;;13.32;55.97
23433;BME280;41331;45.412;10.992;2023-01-31T11:24:57;101579.88;;;12.88;57.22
23433;BME280;41331;45.412;10.992;2023-01-31T11:29:58;101565.81;;;11.87;62.40
23433;BME280;41331;45.412;10.992;2023-01-31T11:32:29;101570.16;;;11.88;62.69
23433;BME280;41331;45.412;10.992;2023-01-31T11:37:27;101565.00;;;12.09;62.46
23433;BME280;41331;45.412;10.992;2023-01-31T11:40:00;101570.88;;;12.48;60.43
23433;BME280;41331;45.412;10.992;2023-01-31T11:42:28;101564.38;;;12.35;60.61
23433;BME280;41331;45.412;10.992;2023-01-31T11:45:01;101557.63;;;11.87;62.73
23433;BME280;41331;45.412;10.992;2023-01-31T11:47:38;101551.13;;;11.97;62.19
23433;BME280;41331;45.412;10.992;2023-01-31T11:50:24;101546.72;;;11.87;64.08
23433;BME280;41331;45.412;10.992;2023-01-31T11:53:03;101554.94;;;12.10;62.13
23433;BME280;41331;45.412;10.992;2023-01-31T11:55:38;101542.66;;;12.30;60.98
23433;BME280;41331;45.412;10.992;2023-01-31T11:58:16;101544.56;;;12.52;58.47
23433;BME280;41331;45.412;10.992;2023-01-31T12:00:54;101546.16;;;12.53;57.91
23433;BME280;41331;45.412;10.992;2023-01-31T12:03:24;101544.63;;;12.38;59.15
23433;BME280;41331;45.412;10.992;2023-01-31T12:06:01;101534.78;;;12.59;57.47
23433;BME280;41331;45.412;10.992;2023-01-31T12:08:40;101542.09;;;12.41;58.75
23433;BME280;41331;45.412;10.992;2023-01-31T12:13:50;101547.34;;;12.60;57.29
23433;BME280;41331;45.412;10.992;2023-01-31T12:16:23;101549.47;;;12.41;57.40
23433;BME280;41331;45.412;10.992;2023-01-31T12:19:08;101542.00;;;12.55;57.30
23433;BME280;41331;45.412;10.992;2023-01-31T12:27:29;101539.34;;;12.73;55.78
23433;BME280;41331;45.412;10.992;2023-01-31T12:35:55;101515.59;;;12.82;55.14
23433;BME280;41331;45.412;10.992;2023-01-31T12:41:32;101516.78;;;12.58;50.54
23433;BME280;41331;45.412;10.992;2023-01-31T12:53:17;101498.88;;;12.43;48.33
23433;BME280;41331;45.412;10.992;2023-01-31T13:01:34;101487.84;;;11.86;48.61
23433;BME280;41331;45.412;10.992;2023-01-31T13:06:53;101471.81;;;12.16;47.46
23433;BME280;41331;45.412;10.992;2023-01-31T13:09:30;101470.81;;;12.52;46.57
23433;BME280;41331;45.412;10.992;2023-01-31T13:12:11;101457.81;;;12.57;46.01
23433;BME280;41331;45.412;10.992;2023-01-31T13:14:48;101456.41;;;12.68;45.75
23433;BME280;41331;45.412;10.992;2023-01-31T13:17:18;101455.97;;;12.84;45.04
23433;BME280;41331;45.412;10.992;2023-01-31T13:19:59;101449.53;;;12.71;45.48
23433;BME280;41331;45.412;10.992;2023-01-31T13:22:54;101461.13;;;12.85;45.27
23433;BME280;41331;45.412;10.992;2023-01-31T13:25:39;101456.63;;;12.98;42.22
23433;BME280;41331;45.412;10.992;2023-01-31T13:31:23;101449.66;;;12.66;43.22
23433;BME280;41331;45.412;10.992;2023-01-31T13:36:37;101452.91;;;12.77;42.54
23433;BME280;41331;45.412;10.992;2023-01-31T13:39:22;101449.53;;;12.71;42.83
23433;BME280;41331;45.412;10.992;2023-01-31T13:41:51;101442.34;;;12.44;43.35
23433;BME280;41331;45.412;10.992;2023-01-31T13:44:18;101445.09;;;12.44;43.17
23433;BME280;41331;45.412;10.992;2023-01-31T13:47:02;101428.84;;;12.30;42.47
23433;BME280;41331;45.412;10.992;2023-01-31T13:49:36;101429.94;;;12.29;42.46
23433;BME280;41331;45.412;10.992;2023-01-31T13:52:38;101422.34;;;12.17;42.84
23433;BME280;41331;45.412;10.992;2023-01-31T13:55:21;101420.63;;;12.22;43.70
23433;BME280;41331;45.412;10.992;2023-01-31T14:00:40;101421.47;;;12.39;44.64
23433;BME280;41331;45.412;10.992;2023-01-31T14:03:11;101418.09;;;12.42;44.46
23433;BME280;41331;45.412;10.992;2023-01-31T14:13:43;101418.31;;;12.63;44.26
23433;BME280;41331;45.412;10.992;2023-01-31T14:16:34;101414.31;;;12.61;42.58
23433;BME280;41331;45.412;10.992;2023-01-31T14:19:25;101420.19;;;12.37;42.93
23433;BME280;41331;45.412;10.992;2023-01-31T14:21:53;101422.31;;;12.09;42.72
23433;BME280;41331;45.412;10.992;2023-01-31T14:27:22;101431.22;;;11.92;43.17
23433;BME280;41331;45.412;10.992;2023-01-31T14:29:57;101425.91;;;11.87;42.54
23433;BME280;41331;45.412;10.992;2023-01-31T14:32:45;101434.09;;;11.87;43.87
23433;BME280;41331;45.412;10.992;2023-01-31T14:43:44;101413.69;;;11.84;43.01
23433;BME280;41331;45.412;10.992;2023-01-31T14:51:32;101416.31;;;11.98;45.07
23433;BME280;41331;45.412;10.992;2023-01-31T14:54:18;101414.19;;;11.86;45.26
23433;BME280;41331;45.412;10.992;2023-01-31T14:57:11;101412.69;;;11.80;45.43
23433;BME280;41331;45.412;10.992;2023-01-31T15:00:03;101413.31;;;11.77;46.30
23433;BME280;41331;45.412;10.992;2023-01-31T15:05:13;101400.13;;;11.48;47.52